TRA62N LEIB-EHAM
Flight info
| Callsign | TRA62N |
|---|---|
| Flight time | 2h 2m |
| Altitude | 36000 |
| Route | EPAMA N856 EBROX Z26 LATRO DCT OLOXO DCT OKABI DCT TOU DCT ADABI DCT BOKNO UN858 VANAD UN874 BAMES UT191 PODEM DCT BAZOS DCT LUMIL DCT BELOB UY873 DENUT |
| Aircraft | B738/M-SDE2E3FGHIRWXY/LB1 |
Departure
| Time | 2026-05-06 14:34 |
|---|---|
| Airport | Ibiza Airport (LEIB) |
Arrival
| Time | 2026-05-06 16:37 |
|---|---|
| Airport | Amsterdam Airport Schiphol (EHAM) |
| Time | Latitude | Longitude | Altitude | Speed | Heading |
|---|---|---|---|---|---|
| 2026-05-06 14:07 | 38.87514 | 1.36804 | 8 ft | 0 kts | 17° |
| 2026-05-06 14:19 | 38.87504 | 1.36800 | 8 ft | 3 kts | 17° |
| 2026-05-06 14:19 | 38.87484 | 1.36792 | 10 ft | 3 kts | 17° |
| 2026-05-06 14:19 | 38.87465 | 1.36784 | 9 ft | 3 kts | 21° |
| 2026-05-06 14:20 | 38.87447 | 1.36777 | 9 ft | 3 kts | 14° |
| 2026-05-06 14:20 | 38.87429 | 1.36768 | 10 ft | 3 kts | 35° |
| 2026-05-06 14:20 | 38.87416 | 1.36751 | 11 ft | 3 kts | 63° |
| 2026-05-06 14:20 | 38.87409 | 1.36727 | 8 ft | 3 kts | 76° |
| 2026-05-06 14:21 | 38.87404 | 1.36706 | 8 ft | 1 kts | 66° |
| 2026-05-06 14:21 | 38.87403 | 1.36703 | 8 ft | 0 kts | 65° |
| 2026-05-06 14:21 | 38.87405 | 1.36711 | 9 ft | 2 kts | 70° |
| 2026-05-06 14:22 | 38.87410 | 1.36735 | 8 ft | 3 kts | 75° |
| 2026-05-06 14:22 | 38.87419 | 1.36757 | 9 ft | 3 kts | 54° |
| 2026-05-06 14:22 | 38.87435 | 1.36772 | 8 ft | 3 kts | 27° |
| 2026-05-06 14:22 | 38.87453 | 1.36778 | 8 ft | 3 kts | 14° |
| 2026-05-06 14:23 | 38.87472 | 1.36787 | 8 ft | 2 kts | 19° |
| 2026-05-06 14:23 | 38.87483 | 1.36791 | 8 ft | 2 kts | 17° |
| 2026-05-06 14:23 | 38.87501 | 1.36799 | 8 ft | 3 kts | 17° |
| 2026-05-06 14:23 | 38.87513 | 1.36803 | 8 ft | 0 kts | 17° |
| 2026-05-06 14:26 | 38.87500 | 1.36798 | 8 ft | 3 kts | 17° |
| 2026-05-06 14:27 | 38.87481 | 1.36790 | 8 ft | 3 kts | 17° |
| 2026-05-06 14:27 | 38.87462 | 1.36782 | 9 ft | 3 kts | 20° |
| 2026-05-06 14:27 | 38.87444 | 1.36776 | 8 ft | 3 kts | 17° |
| 2026-05-06 14:27 | 38.87426 | 1.36766 | 8 ft | 3 kts | 41° |
| 2026-05-06 14:28 | 38.87415 | 1.36747 | 9 ft | 3 kts | 71° |
| 2026-05-06 14:28 | 38.87410 | 1.36722 | 9 ft | 3 kts | 73° |
| 2026-05-06 14:28 | 38.87407 | 1.36712 | 8 ft | 0 kts | 65° |
| 2026-05-06 14:30 | 38.87410 | 1.36720 | 8 ft | 2 kts | 66° |
| 2026-05-06 14:30 | 38.87413 | 1.36765 | 9 ft | 6 kts | 106° |
| 2026-05-06 14:31 | 38.87372 | 1.36810 | 8 ft | 14 kts | 150° |
| 2026-05-06 14:31 | 38.87289 | 1.36849 | 9 ft | 6 kts | 197° |
| 2026-05-06 14:31 | 38.87241 | 1.36754 | 9 ft | 23 kts | 243° |
| 2026-05-06 14:31 | 38.87163 | 1.36568 | 9 ft | 23 kts | 241° |
| 2026-05-06 14:32 | 38.87089 | 1.36388 | 8 ft | 22 kts | 242° |
| 2026-05-06 14:32 | 38.87017 | 1.36214 | 8 ft | 22 kts | 241° |
| 2026-05-06 14:32 | 38.86945 | 1.36041 | 8 ft | 24 kts | 242° |
| 2026-05-06 14:32 | 38.86870 | 1.35858 | 8 ft | 17 kts | 242° |
| 2026-05-06 14:33 | 38.86816 | 1.35825 | 9 ft | 9 kts | 160° |
| 2026-05-06 14:33 | 38.86758 | 1.35864 | 13 ft | 11 kts | 151° |
| 2026-05-06 14:33 | 38.86717 | 1.35941 | 18 ft | 9 kts | 84° |
| 2026-05-06 14:33 | 38.86740 | 1.35999 | 17 ft | 7 kts | 62° |
| 2026-05-06 14:34 | 38.86832 | 1.36219 | 18 ft | 63 kts | 62° |
| 2026-05-06 14:34 | 38.87154 | 1.36993 | 19 ft | 130 kts | 62° |
| 2026-05-06 14:34 | 38.87662 | 1.38196 | 272 ft | 163 kts | 64° |
| 2026-05-06 14:34 | 38.88090 | 1.39471 | 1299 ft | 156 kts | 70° |
| 2026-05-06 14:35 | 38.88389 | 1.40861 | 2024 ft | 169 kts | 74° |
| 2026-05-06 14:35 | 38.88673 | 1.42459 | 2411 ft | 198 kts | 76° |
| 2026-05-06 14:35 | 38.88989 | 1.44201 | 2961 ft | 206 kts | 77° |
| 2026-05-06 14:35 | 38.89322 | 1.46050 | 3475 ft | 217 kts | 77° |
| 2026-05-06 14:36 | 38.89675 | 1.47970 | 4183 ft | 223 kts | 77° |
| 2026-05-06 14:36 | 38.90036 | 1.49901 | 5015 ft | 224 kts | 76° |
| 2026-05-06 14:36 | 38.90408 | 1.51874 | 5716 ft | 230 kts | 76° |
| 2026-05-06 14:36 | 38.90877 | 1.53856 | 6433 ft | 236 kts | 61° |
| 2026-05-06 14:37 | 38.91906 | 1.55600 | 6762 ft | 259 kts | 44° |
| 2026-05-06 14:37 | 38.93301 | 1.57207 | 7173 ft | 277 kts | 40° |
| 2026-05-06 14:37 | 38.94788 | 1.58837 | 7895 ft | 284 kts | 39° |
| 2026-05-06 14:37 | 38.96287 | 1.60512 | 8689 ft | 288 kts | 40° |
| 2026-05-06 14:38 | 38.97795 | 1.62226 | 9495 ft | 292 kts | 40° |
| 2026-05-06 14:38 | 38.99324 | 1.63976 | 10241 ft | 296 kts | 38° |
| 2026-05-06 14:38 | 39.01106 | 1.65283 | 10896 ft | 298 kts | 14° |
| 2026-05-06 14:38 | 39.03140 | 1.65718 | 11630 ft | 298 kts | 3° |
| 2026-05-06 14:39 | 39.05220 | 1.65968 | 12334 ft | 303 kts | 2° |
| 2026-05-06 14:39 | 39.07338 | 1.66225 | 13036 ft | 308 kts | 2° |
| 2026-05-06 14:39 | 39.09482 | 1.66346 | 13728 ft | 309 kts | 349° |
| 2026-05-06 14:39 | 39.11565 | 1.65564 | 14043 ft | 321 kts | 334° |
| 2026-05-06 14:40 | 39.13683 | 1.64394 | 14199 ft | 342 kts | 332° |
| 2026-05-06 14:40 | 39.15915 | 1.63103 | 14361 ft | 362 kts | 332° |
| 2026-05-06 14:40 | 39.18272 | 1.61736 | 14499 ft | 381 kts | 332° |
| 2026-05-06 14:40 | 39.20733 | 1.60322 | 14856 ft | 392 kts | 333° |
| 2026-05-06 14:41 | 39.23240 | 1.58899 | 15426 ft | 396 kts | 333° |
| 2026-05-06 14:41 | 39.25773 | 1.57471 | 16057 ft | 398 kts | 333° |
| 2026-05-06 14:41 | 39.28321 | 1.56040 | 16633 ft | 402 kts | 333° |
| 2026-05-06 14:41 | 39.30902 | 1.54590 | 17194 ft | 406 kts | 332° |
| 2026-05-06 14:42 | 39.33504 | 1.53128 | 17739 ft | 410 kts | 332° |
| 2026-05-06 14:42 | 39.36134 | 1.51650 | 18295 ft | 414 kts | 332° |
| 2026-05-06 14:42 | 39.38783 | 1.50159 | 18785 ft | 417 kts | 332° |
| 2026-05-06 14:42 | 39.41449 | 1.48657 | 19291 ft | 419 kts | 332° |
| 2026-05-06 14:43 | 39.44133 | 1.47144 | 19781 ft | 422 kts | 332° |
| 2026-05-06 14:43 | 39.46836 | 1.45618 | 20271 ft | 425 kts | 332° |
| 2026-05-06 14:43 | 39.49555 | 1.44082 | 20757 ft | 428 kts | 332° |
| 2026-05-06 14:43 | 39.52290 | 1.42536 | 21219 ft | 431 kts | 332° |
| 2026-05-06 14:44 | 39.55047 | 1.40976 | 21671 ft | 434 kts | 331° |
| 2026-05-06 14:44 | 39.57820 | 1.39406 | 22118 ft | 436 kts | 331° |
| 2026-05-06 14:44 | 39.60654 | 1.37943 | 22538 ft | 444 kts | 339° |
| 2026-05-06 14:45 | 39.66898 | 1.36939 | 23395 ft | 457 kts | 350° |
| 2026-05-06 14:45 | 39.70036 | 1.36592 | 23735 ft | 460 kts | 350° |
| 2026-05-06 14:45 | 39.73232 | 1.36230 | 24056 ft | 463 kts | 349° |
| 2026-05-06 14:45 | 39.76445 | 1.35846 | 24395 ft | 465 kts | 349° |
| 2026-05-06 14:46 | 39.79674 | 1.35440 | 24732 ft | 467 kts | 349° |
| 2026-05-06 14:46 | 39.82914 | 1.35020 | 25052 ft | 469 kts | 348° |
| 2026-05-06 14:46 | 39.86170 | 1.34589 | 25371 ft | 472 kts | 348° |
| 2026-05-06 14:46 | 39.89443 | 1.34153 | 25679 ft | 474 kts | 348° |
| 2026-05-06 14:47 | 39.92734 | 1.33714 | 25975 ft | 476 kts | 348° |
| 2026-05-06 14:47 | 39.96036 | 1.33273 | 26269 ft | 479 kts | 348° |
| 2026-05-06 14:47 | 39.99359 | 1.32830 | 26566 ft | 481 kts | 348° |
| 2026-05-06 14:47 | 40.02696 | 1.32386 | 26847 ft | 483 kts | 348° |
| 2026-05-06 14:48 | 40.06046 | 1.31939 | 27117 ft | 485 kts | 348° |
| 2026-05-06 14:48 | 40.09415 | 1.31490 | 27388 ft | 488 kts | 348° |
| 2026-05-06 14:48 | 40.12798 | 1.31039 | 27688 ft | 489 kts | 348° |
| 2026-05-06 14:48 | 40.16178 | 1.30589 | 28079 ft | 488 kts | 347° |
| 2026-05-06 14:49 | 40.19549 | 1.30140 | 28516 ft | 486 kts | 347° |
| 2026-05-06 14:49 | 40.22913 | 1.29691 | 28943 ft | 485 kts | 347° |
| 2026-05-06 14:49 | 40.26270 | 1.29241 | 29322 ft | 485 kts | 347° |
| 2026-05-06 14:49 | 40.29623 | 1.28791 | 29691 ft | 485 kts | 347° |
| 2026-05-06 14:50 | 40.32977 | 1.28340 | 30068 ft | 484 kts | 347° |
| 2026-05-06 14:50 | 40.36326 | 1.27890 | 30411 ft | 483 kts | 347° |
| 2026-05-06 14:50 | 40.39664 | 1.27441 | 30758 ft | 482 kts | 346° |
| 2026-05-06 14:50 | 40.42997 | 1.26991 | 31093 ft | 481 kts | 346° |
| 2026-05-06 14:51 | 40.46316 | 1.26542 | 31430 ft | 480 kts | 346° |
| 2026-05-06 14:51 | 40.49632 | 1.26093 | 31777 ft | 478 kts | 346° |
| 2026-05-06 14:51 | 40.52937 | 1.25645 | 32099 ft | 477 kts | 346° |
| 2026-05-06 14:51 | 40.56235 | 1.25197 | 32430 ft | 476 kts | 346° |
| 2026-05-06 14:52 | 40.59525 | 1.24750 | 32749 ft | 475 kts | 346° |
| 2026-05-06 14:52 | 40.62806 | 1.24303 | 33086 ft | 474 kts | 346° |
| 2026-05-06 14:52 | 40.66077 | 1.23859 | 33468 ft | 471 kts | 346° |
| 2026-05-06 14:52 | 40.69350 | 1.23549 | 33847 ft | 475 kts | 352° |
| 2026-05-06 14:53 | 40.72668 | 1.23822 | 34132 ft | 482 kts | 1° |
| 2026-05-06 14:53 | 40.75976 | 1.24767 | 34345 ft | 489 kts | 8° |
| 2026-05-06 14:53 | 40.79265 | 1.25953 | 34531 ft | 491 kts | 9° |
| 2026-05-06 14:53 | 40.82554 | 1.27198 | 34687 ft | 493 kts | 10° |
| 2026-05-06 14:54 | 40.85856 | 1.28455 | 34848 ft | 494 kts | 10° |
| 2026-05-06 14:54 | 40.89169 | 1.29699 | 35062 ft | 494 kts | 9° |
| 2026-05-06 14:54 | 40.92472 | 1.30920 | 35324 ft | 492 kts | 9° |
| 2026-05-06 14:54 | 40.95769 | 1.32121 | 35592 ft | 491 kts | 9° |
| 2026-05-06 14:55 | 40.99058 | 1.33309 | 35824 ft | 490 kts | 9° |
| 2026-05-06 14:55 | 41.02349 | 1.34493 | 35938 ft | 491 kts | 9° |
| 2026-05-06 14:55 | 41.05617 | 1.35666 | 35935 ft | 494 kts | 9° |
| 2026-05-06 14:56 | 41.12267 | 1.38064 | 35927 ft | 490 kts | 9° |
| 2026-05-06 14:56 | 41.18832 | 1.40443 | 35946 ft | 488 kts | 9° |
| 2026-05-06 14:57 | 41.25318 | 1.42796 | 35935 ft | 486 kts | 9° |
| 2026-05-06 14:57 | 41.31832 | 1.45164 | 35933 ft | 485 kts | 9° |
| 2026-05-06 14:58 | 41.38341 | 1.47535 | 35929 ft | 485 kts | 10° |
| 2026-05-06 14:58 | 41.44854 | 1.49913 | 35934 ft | 486 kts | 10° |
| 2026-05-06 14:59 | 41.51382 | 1.52301 | 35921 ft | 487 kts | 10° |
| 2026-05-06 14:59 | 41.57930 | 1.54701 | 35929 ft | 491 kts | 10° |
| 2026-05-06 15:00 | 41.64565 | 1.57138 | 35929 ft | 498 kts | 10° |
| 2026-05-06 15:00 | 41.71272 | 1.59610 | 35919 ft | 501 kts | 10° |
| 2026-05-06 15:01 | 41.78062 | 1.61370 | 35920 ft | 492 kts | 357° |
| 2026-05-06 15:01 | 41.84791 | 1.60804 | 35939 ft | 483 kts | 347° |
| 2026-05-06 15:02 | 41.91424 | 1.59647 | 35935 ft | 477 kts | 346° |
| 2026-05-06 15:02 | 41.97968 | 1.58547 | 35921 ft | 471 kts | 347° |
| 2026-05-06 15:03 | 42.04466 | 1.57507 | 35944 ft | 469 kts | 347° |
| 2026-05-06 15:03 | 42.10938 | 1.56485 | 35905 ft | 468 kts | 347° |
| 2026-05-06 15:04 | 42.17398 | 1.55462 | 35915 ft | 467 kts | 347° |
| 2026-05-06 15:04 | 42.23687 | 1.54463 | 35909 ft | 466 kts | 347° |
| 2026-05-06 15:05 | 42.30139 | 1.53435 | 35910 ft | 468 kts | 347° |
| 2026-05-06 15:05 | 42.36626 | 1.52398 | 35922 ft | 470 kts | 347° |
| 2026-05-06 15:06 | 42.43142 | 1.51357 | 35926 ft | 473 kts | 347° |
| 2026-05-06 15:06 | 42.49647 | 1.50316 | 35930 ft | 475 kts | 347° |
| 2026-05-06 15:07 | 42.56209 | 1.49269 | 35937 ft | 475 kts | 348° |
| 2026-05-06 15:07 | 42.62781 | 1.48211 | 35944 ft | 476 kts | 348° |
| 2026-05-06 15:08 | 42.69348 | 1.47155 | 35976 ft | 475 kts | 348° |
| 2026-05-06 15:08 | 42.75926 | 1.46095 | 35962 ft | 476 kts | 348° |
| 2026-05-06 15:09 | 42.82486 | 1.45038 | 35981 ft | 474 kts | 348° |
| 2026-05-06 15:09 | 42.89012 | 1.43979 | 35986 ft | 472 kts | 348° |
| 2026-05-06 15:10 | 42.95540 | 1.42921 | 35978 ft | 472 kts | 348° |
| 2026-05-06 15:10 | 43.02063 | 1.41862 | 35991 ft | 472 kts | 348° |
| 2026-05-06 15:11 | 43.08582 | 1.40801 | 35980 ft | 472 kts | 348° |
| 2026-05-06 15:11 | 43.15105 | 1.39736 | 35975 ft | 472 kts | 348° |
| 2026-05-06 15:12 | 43.20520 | 1.38851 | 35968 ft | 472 kts | 348° |
| 2026-05-06 15:12 | 43.27040 | 1.37782 | 35971 ft | 471 kts | 348° |
| 2026-05-06 15:13 | 43.33547 | 1.36714 | 35957 ft | 471 kts | 348° |
| 2026-05-06 15:13 | 43.40060 | 1.35642 | 35957 ft | 471 kts | 348° |
| 2026-05-06 15:14 | 43.46572 | 1.34568 | 35949 ft | 471 kts | 348° |
| 2026-05-06 15:14 | 43.53071 | 1.33494 | 35943 ft | 470 kts | 348° |
| 2026-05-06 15:15 | 43.59569 | 1.32417 | 35951 ft | 470 kts | 349° |
| 2026-05-06 15:15 | 43.66064 | 1.31339 | 35941 ft | 470 kts | 349° |
| 2026-05-06 15:16 | 43.72512 | 1.30027 | 35940 ft | 467 kts | 346° |
| 2026-05-06 15:16 | 43.78893 | 1.28337 | 35945 ft | 466 kts | 345° |
| 2026-05-06 15:17 | 43.85259 | 1.26613 | 35936 ft | 466 kts | 345° |
| 2026-05-06 15:17 | 43.91631 | 1.24929 | 35936 ft | 466 kts | 346° |
| 2026-05-06 15:18 | 43.98003 | 1.23271 | 35941 ft | 466 kts | 346° |
| 2026-05-06 15:18 | 44.04377 | 1.21617 | 35941 ft | 466 kts | 346° |
| 2026-05-06 15:19 | 44.10743 | 1.19960 | 35940 ft | 465 kts | 346° |
| 2026-05-06 15:19 | 44.17109 | 1.18299 | 35945 ft | 466 kts | 346° |
| 2026-05-06 15:20 | 44.23479 | 1.16632 | 35940 ft | 465 kts | 346° |
| 2026-05-06 15:20 | 44.29801 | 1.14974 | 35924 ft | 465 kts | 346° |
| 2026-05-06 15:21 | 44.36164 | 1.13302 | 35928 ft | 465 kts | 346° |
| 2026-05-06 15:21 | 44.42522 | 1.11627 | 35920 ft | 465 kts | 346° |
| 2026-05-06 15:22 | 44.48875 | 1.09950 | 35923 ft | 464 kts | 346° |
| 2026-05-06 15:22 | 44.55219 | 1.08271 | 35919 ft | 464 kts | 347° |
| 2026-05-06 15:23 | 44.61556 | 1.06591 | 35914 ft | 463 kts | 347° |
| 2026-05-06 15:23 | 44.67891 | 1.04908 | 35911 ft | 463 kts | 347° |
| 2026-05-06 15:24 | 44.74215 | 1.03223 | 35921 ft | 462 kts | 347° |
| 2026-05-06 15:24 | 44.80537 | 1.01535 | 35914 ft | 463 kts | 347° |
| 2026-05-06 15:25 | 44.86858 | 0.99844 | 35909 ft | 462 kts | 347° |
| 2026-05-06 15:25 | 44.93172 | 0.98151 | 35917 ft | 462 kts | 347° |
| 2026-05-06 15:26 | 44.99482 | 0.96455 | 35918 ft | 462 kts | 347° |
| 2026-05-06 15:26 | 45.05797 | 0.94754 | 35909 ft | 462 kts | 347° |
| 2026-05-06 15:27 | 45.12066 | 0.93062 | 35917 ft | 462 kts | 347° |
| 2026-05-06 15:27 | 45.18371 | 0.91356 | 35910 ft | 461 kts | 347° |
| 2026-05-06 15:28 | 45.24670 | 0.89649 | 35917 ft | 460 kts | 347° |
| 2026-05-06 15:28 | 45.30953 | 0.87941 | 35911 ft | 460 kts | 347° |
| 2026-05-06 15:29 | 45.37230 | 0.86231 | 35915 ft | 459 kts | 347° |
| 2026-05-06 15:29 | 45.43504 | 0.84518 | 35913 ft | 459 kts | 347° |
| 2026-05-06 15:30 | 45.49775 | 0.82803 | 35905 ft | 459 kts | 347° |
| 2026-05-06 15:30 | 45.56043 | 0.81083 | 35923 ft | 459 kts | 347° |
| 2026-05-06 15:31 | 45.62329 | 0.79355 | 35904 ft | 460 kts | 347° |
| 2026-05-06 15:31 | 45.68613 | 0.77624 | 35899 ft | 460 kts | 347° |
| 2026-05-06 15:32 | 45.78029 | 0.75023 | 35898 ft | 459 kts | 347° |
| 2026-05-06 15:32 | 45.84304 | 0.73284 | 35894 ft | 459 kts | 347° |
| 2026-05-06 15:33 | 45.90573 | 0.71543 | 35902 ft | 459 kts | 347° |
| 2026-05-06 15:33 | 45.96839 | 0.69799 | 35912 ft | 459 kts | 347° |
| 2026-05-06 15:34 | 46.03064 | 0.68062 | 35912 ft | 459 kts | 347° |
| 2026-05-06 15:34 | 46.09332 | 0.66309 | 35919 ft | 459 kts | 347° |
| 2026-05-06 15:35 | 46.15592 | 0.64555 | 35920 ft | 459 kts | 347° |
| 2026-05-06 15:35 | 46.21858 | 0.62794 | 35919 ft | 458 kts | 347° |
| 2026-05-06 15:36 | 46.28162 | 0.61019 | 35923 ft | 459 kts | 347° |
| 2026-05-06 15:36 | 46.34389 | 0.59261 | 35916 ft | 459 kts | 347° |
| 2026-05-06 15:37 | 46.40657 | 0.57488 | 35930 ft | 458 kts | 347° |
| 2026-05-06 15:37 | 46.46917 | 0.55712 | 35932 ft | 458 kts | 347° |
| 2026-05-06 15:38 | 46.53175 | 0.53976 | 35929 ft | 459 kts | 352° |
| 2026-05-06 15:38 | 46.59550 | 0.54074 | 35925 ft | 461 kts | 9° |
| 2026-05-06 15:39 | 46.65805 | 0.56129 | 35935 ft | 461 kts | 12° |
| 2026-05-06 15:39 | 46.72050 | 0.58310 | 35939 ft | 461 kts | 12° |
| 2026-05-06 15:40 | 46.78302 | 0.60421 | 35937 ft | 461 kts | 11° |
| 2026-05-06 15:40 | 46.84566 | 0.62497 | 35941 ft | 462 kts | 12° |
| 2026-05-06 15:41 | 46.90834 | 0.64574 | 35934 ft | 462 kts | 12° |
| 2026-05-06 15:41 | 46.97087 | 0.66657 | 35935 ft | 462 kts | 11° |
| 2026-05-06 15:42 | 47.03358 | 0.68749 | 35939 ft | 462 kts | 11° |
| 2026-05-06 15:42 | 47.09713 | 0.69947 | 35944 ft | 460 kts | 2° |
| 2026-05-06 15:43 | 47.16109 | 0.70485 | 35938 ft | 460 kts | 2° |
| 2026-05-06 15:43 | 47.22462 | 0.71056 | 35937 ft | 461 kts | 2° |
| 2026-05-06 15:44 | 47.28898 | 0.71714 | 35941 ft | 460 kts | 3° |
| 2026-05-06 15:44 | 47.35290 | 0.72390 | 35938 ft | 460 kts | 3° |
| 2026-05-06 15:45 | 47.41631 | 0.73060 | 35939 ft | 460 kts | 3° |
| 2026-05-06 15:45 | 47.48014 | 0.73748 | 35942 ft | 460 kts | 5° |
| 2026-05-06 15:46 | 47.54237 | 0.75955 | 35952 ft | 461 kts | 17° |
| 2026-05-06 15:46 | 47.60305 | 0.79058 | 35947 ft | 462 kts | 18° |
| 2026-05-06 15:47 | 47.66387 | 0.82136 | 35938 ft | 462 kts | 17° |
| 2026-05-06 15:47 | 47.72486 | 0.85154 | 35932 ft | 462 kts | 17° |
| 2026-05-06 15:48 | 47.78582 | 0.88162 | 35937 ft | 462 kts | 17° |
| 2026-05-06 15:48 | 47.84675 | 0.91183 | 35935 ft | 462 kts | 17° |
| 2026-05-06 15:49 | 47.90765 | 0.94251 | 35933 ft | 462 kts | 18° |
| 2026-05-06 15:49 | 47.96848 | 0.97338 | 35931 ft | 462 kts | 18° |
| 2026-05-06 15:50 | 48.02926 | 1.00426 | 35937 ft | 462 kts | 18° |
| 2026-05-06 15:50 | 48.09010 | 1.03521 | 35935 ft | 462 kts | 18° |
| 2026-05-06 15:51 | 48.15098 | 1.06625 | 35931 ft | 462 kts | 18° |
| 2026-05-06 15:51 | 48.21178 | 1.09732 | 35929 ft | 462 kts | 18° |
| 2026-05-06 15:52 | 48.27264 | 1.12836 | 35932 ft | 462 kts | 18° |
| 2026-05-06 15:52 | 48.33352 | 1.15938 | 35929 ft | 462 kts | 18° |
| 2026-05-06 15:53 | 48.39444 | 1.19052 | 35932 ft | 462 kts | 18° |
| 2026-05-06 15:53 | 48.45536 | 1.22177 | 35929 ft | 462 kts | 18° |
| 2026-05-06 15:54 | 48.51628 | 1.25309 | 35930 ft | 463 kts | 18° |
| 2026-05-06 15:54 | 48.57724 | 1.28437 | 35929 ft | 463 kts | 18° |
| 2026-05-06 15:55 | 48.63834 | 1.31511 | 35928 ft | 463 kts | 17° |
| 2026-05-06 15:55 | 48.69913 | 1.34568 | 35931 ft | 463 kts | 17° |
| 2026-05-06 15:56 | 48.76029 | 1.37660 | 35930 ft | 464 kts | 17° |
| 2026-05-06 15:56 | 48.82150 | 1.40769 | 35933 ft | 464 kts | 17° |
| 2026-05-06 15:57 | 48.88266 | 1.43883 | 35934 ft | 464 kts | 17° |
| 2026-05-06 15:57 | 48.94382 | 1.47004 | 35938 ft | 464 kts | 17° |
| 2026-05-06 15:58 | 49.00604 | 1.49505 | 35943 ft | 462 kts | 8° |
| 2026-05-06 15:58 | 49.06967 | 1.50884 | 35936 ft | 462 kts | 7° |
| 2026-05-06 15:59 | 49.13332 | 1.52295 | 35936 ft | 462 kts | 7° |
| 2026-05-06 15:59 | 49.19690 | 1.53787 | 35938 ft | 462 kts | 7° |
| 2026-05-06 16:00 | 49.25860 | 1.56447 | 35952 ft | 464 kts | 26° |
| 2026-05-06 16:00 | 49.30286 | 1.61063 | 35943 ft | 466 kts | 42° |
| 2026-05-06 16:01 | 49.34946 | 1.67990 | 35942 ft | 467 kts | 44° |
| 2026-05-06 16:01 | 49.39588 | 1.74965 | 35940 ft | 467 kts | 43° |
| 2026-05-06 16:02 | 49.44281 | 1.81879 | 35942 ft | 468 kts | 43° |
| 2026-05-06 16:02 | 49.48991 | 1.88796 | 35943 ft | 468 kts | 43° |
| 2026-05-06 16:03 | 49.53863 | 1.95434 | 35945 ft | 468 kts | 37° |
| 2026-05-06 16:03 | 49.59125 | 2.01340 | 35941 ft | 468 kts | 34° |
| 2026-05-06 16:04 | 49.64428 | 2.07174 | 35943 ft | 469 kts | 35° |
| 2026-05-06 16:04 | 49.69708 | 2.13095 | 35933 ft | 469 kts | 36° |
| 2026-05-06 16:05 | 49.74963 | 2.19070 | 35930 ft | 469 kts | 36° |
| 2026-05-06 16:05 | 49.80214 | 2.25073 | 35924 ft | 470 kts | 36° |
| 2026-05-06 16:06 | 49.85475 | 2.31100 | 35917 ft | 471 kts | 36° |
| 2026-05-06 16:06 | 49.90740 | 2.37147 | 35915 ft | 471 kts | 36° |
| 2026-05-06 16:07 | 49.96012 | 2.43216 | 35909 ft | 472 kts | 36° |
| 2026-05-06 16:07 | 50.01280 | 2.49298 | 35909 ft | 472 kts | 36° |
| 2026-05-06 16:08 | 50.06539 | 2.55387 | 35923 ft | 472 kts | 36° |
| 2026-05-06 16:08 | 50.11806 | 2.61502 | 35912 ft | 472 kts | 36° |
| 2026-05-06 16:09 | 50.17032 | 2.67587 | 35914 ft | 472 kts | 37° |
| 2026-05-06 16:09 | 50.22326 | 2.73768 | 35910 ft | 472 kts | 37° |
| 2026-05-06 16:10 | 50.27575 | 2.79915 | 35913 ft | 472 kts | 37° |
| 2026-05-06 16:10 | 50.32819 | 2.86073 | 35914 ft | 471 kts | 37° |
| 2026-05-06 16:11 | 50.38024 | 2.92203 | 35912 ft | 471 kts | 37° |
| 2026-05-06 16:11 | 50.43337 | 2.98207 | 35905 ft | 471 kts | 30° |
| 2026-05-06 16:12 | 50.49096 | 3.03077 | 35906 ft | 470 kts | 27° |
| 2026-05-06 16:12 | 50.54901 | 3.07823 | 35910 ft | 471 kts | 27° |
| 2026-05-06 16:13 | 50.60677 | 3.12679 | 35914 ft | 471 kts | 28° |
| 2026-05-06 16:13 | 50.66438 | 3.17590 | 35912 ft | 471 kts | 28° |
| 2026-05-06 16:14 | 50.72204 | 3.22504 | 35910 ft | 471 kts | 28° |
| 2026-05-06 16:14 | 50.77998 | 3.27343 | 35903 ft | 471 kts | 27° |
| 2026-05-06 16:15 | 50.80936 | 3.29783 | 34981 ft | 485 kts | 27° |
| 2026-05-06 16:15 | 50.83916 | 3.32263 | 34283 ft | 482 kts | 28° |
| 2026-05-06 16:15 | 50.86866 | 3.34727 | 33668 ft | 477 kts | 28° |
| 2026-05-06 16:15 | 50.89768 | 3.37157 | 32906 ft | 469 kts | 28° |
| 2026-05-06 16:16 | 50.92631 | 3.39561 | 32139 ft | 463 kts | 28° |
| 2026-05-06 16:16 | 50.95466 | 3.41947 | 31389 ft | 457 kts | 28° |
| 2026-05-06 16:16 | 50.98262 | 3.44302 | 30644 ft | 453 kts | 28° |
| 2026-05-06 16:16 | 51.01028 | 3.46636 | 29875 ft | 448 kts | 28° |
| 2026-05-06 16:17 | 51.03765 | 3.48949 | 28985 ft | 443 kts | 28° |
| 2026-05-06 16:17 | 51.06474 | 3.51241 | 28169 ft | 444 kts | 28° |
| 2026-05-06 16:17 | 51.09212 | 3.53560 | 27314 ft | 462 kts | 28° |
| 2026-05-06 16:17 | 51.12106 | 3.56014 | 26499 ft | 480 kts | 27° |
| 2026-05-06 16:18 | 51.15041 | 3.58508 | 25815 ft | 474 kts | 27° |
| 2026-05-06 16:18 | 51.17933 | 3.60967 | 25164 ft | 469 kts | 27° |
| 2026-05-06 16:18 | 51.20797 | 3.63406 | 24517 ft | 464 kts | 27° |
| 2026-05-06 16:18 | 51.23745 | 3.65347 | 24075 ft | 453 kts | 13° |
| 2026-05-06 16:19 | 51.26811 | 3.65934 | 23850 ft | 437 kts | 358° |
| 2026-05-06 16:19 | 51.29845 | 3.65829 | 23505 ft | 443 kts | 356° |
| 2026-05-06 16:19 | 51.32990 | 3.65654 | 22802 ft | 455 kts | 356° |
| 2026-05-06 16:19 | 51.36134 | 3.65482 | 22143 ft | 449 kts | 357° |
| 2026-05-06 16:20 | 51.39229 | 3.65339 | 21525 ft | 442 kts | 357° |
| 2026-05-06 16:20 | 51.42283 | 3.65220 | 20857 ft | 437 kts | 358° |
| 2026-05-06 16:20 | 51.45304 | 3.65117 | 20216 ft | 432 kts | 358° |
| 2026-05-06 16:20 | 51.48294 | 3.65023 | 19586 ft | 427 kts | 358° |
| 2026-05-06 16:21 | 51.51247 | 3.64933 | 18973 ft | 422 kts | 358° |
| 2026-05-06 16:21 | 51.54174 | 3.64842 | 18355 ft | 419 kts | 358° |
| 2026-05-06 16:21 | 51.57073 | 3.64753 | 17675 ft | 415 kts | 358° |
| 2026-05-06 16:21 | 51.59942 | 3.64663 | 17022 ft | 410 kts | 358° |
| 2026-05-06 16:22 | 51.62779 | 3.64573 | 16412 ft | 405 kts | 358° |
| 2026-05-06 16:22 | 51.65578 | 3.64484 | 15804 ft | 400 kts | 358° |
| 2026-05-06 16:22 | 51.68351 | 3.64472 | 15196 ft | 397 kts | 4° |
| 2026-05-06 16:22 | 51.70999 | 3.65605 | 14600 ft | 396 kts | 25° |
| 2026-05-06 16:23 | 51.73278 | 3.68054 | 14121 ft | 393 kts | 41° |
| 2026-05-06 16:23 | 51.75051 | 3.71407 | 13447 ft | 397 kts | 56° |
| 2026-05-06 16:23 | 51.76511 | 3.75152 | 12822 ft | 393 kts | 57° |
| 2026-05-06 16:23 | 51.77911 | 3.78844 | 12186 ft | 389 kts | 57° |
| 2026-05-06 16:24 | 51.79318 | 3.82542 | 11579 ft | 384 kts | 57° |
| 2026-05-06 16:24 | 51.80723 | 3.86194 | 11072 ft | 379 kts | 57° |
| 2026-05-06 16:24 | 51.82091 | 3.89725 | 10920 ft | 364 kts | 57° |
| 2026-05-06 16:24 | 51.83422 | 3.93135 | 10750 ft | 352 kts | 57° |
| 2026-05-06 16:25 | 51.84707 | 3.96417 | 10596 ft | 340 kts | 57° |
| 2026-05-06 16:25 | 51.85948 | 3.99586 | 10454 ft | 328 kts | 56° |
| 2026-05-06 16:25 | 51.87146 | 4.02651 | 10323 ft | 317 kts | 57° |
| 2026-05-06 16:25 | 51.88305 | 4.05622 | 10196 ft | 307 kts | 57° |
| 2026-05-06 16:26 | 51.89427 | 4.08502 | 10074 ft | 298 kts | 57° |
| 2026-05-06 16:26 | 51.90674 | 4.11093 | 9932 ft | 288 kts | 38° |
| 2026-05-06 16:26 | 51.92379 | 4.12592 | 9906 ft | 274 kts | 17° |
| 2026-05-06 16:26 | 51.94233 | 4.13005 | 9687 ft | 269 kts | 359° |
| 2026-05-06 16:27 | 51.96122 | 4.12828 | 9179 ft | 275 kts | 355° |
| 2026-05-06 16:27 | 51.98035 | 4.12583 | 8775 ft | 276 kts | 355° |
| 2026-05-06 16:27 | 51.99956 | 4.12348 | 8430 ft | 277 kts | 356° |
| 2026-05-06 16:27 | 52.01869 | 4.12129 | 8153 ft | 274 kts | 356° |
| 2026-05-06 16:28 | 52.03766 | 4.11919 | 7842 ft | 273 kts | 356° |
| 2026-05-06 16:28 | 52.05632 | 4.12230 | 7539 ft | 271 kts | 20° |
| 2026-05-06 16:28 | 52.07215 | 4.13826 | 7227 ft | 270 kts | 44° |
| 2026-05-06 16:28 | 52.08333 | 4.16268 | 6961 ft | 269 kts | 59° |
| 2026-05-06 16:29 | 52.09255 | 4.18921 | 6937 ft | 273 kts | 60° |
| 2026-05-06 16:29 | 52.10177 | 4.21644 | 6911 ft | 275 kts | 60° |
| 2026-05-06 16:29 | 52.11098 | 4.24368 | 6905 ft | 273 kts | 60° |
| 2026-05-06 16:29 | 52.12011 | 4.27054 | 6818 ft | 270 kts | 60° |
| 2026-05-06 16:30 | 52.12918 | 4.29710 | 6545 ft | 268 kts | 60° |
| 2026-05-06 16:30 | 52.13520 | 4.31465 | 6336 ft | 268 kts | 60° |
| 2026-05-06 16:30 | 52.14731 | 4.34997 | 5999 ft | 264 kts | 60° |
| 2026-05-06 16:30 | 52.15623 | 4.37594 | 5734 ft | 262 kts | 59° |
| 2026-05-06 16:31 | 52.16507 | 4.40172 | 5470 ft | 259 kts | 59° |
| 2026-05-06 16:31 | 52.17386 | 4.42732 | 5193 ft | 258 kts | 59° |
| 2026-05-06 16:31 | 52.18227 | 4.45236 | 5070 ft | 244 kts | 62° |
| 2026-05-06 16:31 | 52.18983 | 4.47574 | 4823 ft | 223 kts | 59° |
| 2026-05-06 16:32 | 52.19727 | 4.49641 | 4598 ft | 204 kts | 57° |
| 2026-05-06 16:32 | 52.20455 | 4.51566 | 4126 ft | 197 kts | 57° |
| 2026-05-06 16:32 | 52.21170 | 4.53442 | 3626 ft | 192 kts | 56° |
| 2026-05-06 16:32 | 52.21859 | 4.55250 | 3132 ft | 184 kts | 56° |
| 2026-05-06 16:33 | 52.22520 | 4.56985 | 2642 ft | 177 kts | 55° |
| 2026-05-06 16:33 | 52.23150 | 4.58636 | 2322 ft | 165 kts | 56° |
| 2026-05-06 16:33 | 52.23739 | 4.60186 | 2035 ft | 150 kts | 56° |
| 2026-05-06 16:34 | 52.24765 | 4.62882 | 1570 ft | 144 kts | 56° |
| 2026-05-06 16:34 | 52.25281 | 4.64245 | 1363 ft | 139 kts | 55° |
| 2026-05-06 16:34 | 52.25766 | 4.65534 | 1206 ft | 133 kts | 55° |
| 2026-05-06 16:34 | 52.26255 | 4.66804 | 1022 ft | 133 kts | 54° |
| 2026-05-06 16:35 | 52.26760 | 4.68104 | 837 ft | 134 kts | 55° |
| 2026-05-06 16:35 | 52.27244 | 4.69369 | 652 ft | 134 kts | 56° |
| 2026-05-06 16:35 | 52.27737 | 4.70669 | 475 ft | 131 kts | 57° |
| 2026-05-06 16:35 | 52.28228 | 4.71953 | 268 ft | 135 kts | 58° |
| 2026-05-06 16:36 | 52.28734 | 4.73261 | 104 ft | 138 kts | 57° |
| 2026-05-06 16:36 | 52.29236 | 4.74565 | -1 ft | 129 kts | 56° |
| 2026-05-06 16:36 | 52.29651 | 4.75645 | -3 ft | 95 kts | 58° |
| 2026-05-06 16:36 | 52.29936 | 4.76391 | -5 ft | 60 kts | 58° |
| 2026-05-06 16:37 | 52.30126 | 4.76880 | -4 ft | 47 kts | 57° |
| 2026-05-06 16:37 | 52.30240 | 4.77179 | -5 ft | 24 kts | 56° |
| 2026-05-06 16:37 | 52.30360 | 4.77349 | -5 ft | 23 kts | 28° |
| 2026-05-06 16:37 | 52.30440 | 4.77412 | -4 ft | 12 kts | 11° |
| 2026-05-06 16:38 | 52.30514 | 4.77371 | -4 ft | 12 kts | 327° |
| 2026-05-06 16:38 | 52.30582 | 4.77306 | -4 ft | 11 kts | 329° |
| 2026-05-06 16:38 | 52.30642 | 4.77229 | -4 ft | 11 kts | 317° |
| 2026-05-06 16:38 | 52.30681 | 4.77213 | -4 ft | 5 kts | 2° |
| 2026-05-06 16:39 | 52.30703 | 4.77216 | -4 ft | 0 kts | 4° |
| 2026-05-06 16:39 | 52.30706 | 4.77216 | -4 ft | 0 kts | 4° |